Time;durP1;ratioP1;P1;durP2;ratioP2;P2;SDS_P1;SDS_P2;PMS_P1;PMS_P2;Temp;Humidity;BMP_temperature;BMP_pressure;BME280_temperature;BME280_humidity;BME280_pressure;Samples;Min_cycle;Max_cycle;Signal;HPM_P1;HPM_P2
2021/08/15 00:00:56;;;;;;;35.42;8.52;;;;;;;28.41;41.18;98699.69;5030083;28;20585;-52
2021/08/15 00:03:22;;;;;;;32.80;6.20;;;;;;;28.15;41.37;98707.78;5031011;28;20080;-52
2021/08/15 00:05:48;;;;;;;33.10;6.43;;;;;;;27.91;42.07;98702.81;5032164;28;20029;-52
2021/08/15 00:08:13;;;;;;;37.20;7.25;;;;;;;27.82;41.92;98705.44;5047447;28;20029;-52
2021/08/15 00:10:39;;;;;;;32.00;6.72;;;;;;;27.67;42.94;98697.81;5032362;28;20029;-52
2021/08/15 00:13:09;;;;;;;27.88;5.90;;;;;;;27.91;41.58;98697.44;5032118;28;20029;-52
2021/08/15 00:15:35;;;;;;;25.15;6.57;;;;;;;27.85;41.17;98701.34;5032028;28;20123;-52
2021/08/15 00:18:01;;;;;;;37.58;6.50;;;;;;;27.68;41.38;98699.38;5032077;28;20487;-52
2021/08/15 00:20:27;;;;;;;28.75;6.15;;;;;;;27.54;41.83;98704.91;5031978;28;20460;-52
2021/08/15 00:22:53;;;;;;;30.45;6.55;;;;;;;27.53;42.16;98689.84;5031653;28;20041;-52
2021/08/15 00:25:18;;;;;;;33.25;8.95;;;;;;;27.55;41.83;98697.59;5047185;28;20353;-51
2021/08/15 00:27:45;;;;;;;33.53;6.07;;;;;;;27.35;42.24;98691.69;5031853;28;20029;-52
2021/08/15 00:30:14;;;;;;;34.40;7.35;;;;;;;27.16;43.44;98702.66;5047080;28;20037;-52
2021/08/15 00:32:41;;;;;;;28.67;5.93;;;;;;;26.85;44.17;98692.66;5032097;28;20442;-52
2021/08/15 00:35:07;;;;;;;28.02;7.70;;;;;;;26.69;44.66;98696.84;5031761;28;20164;-52
2021/08/15 00:37:33;;;;;;;36.92;10.20;;;;;;;26.76;45.25;98696.41;5031729;28;20151;-52
2021/08/15 00:39:58;;;;;;;32.75;8.57;;;;;;;27.25;44.43;98689.25;5031778;28;20029;-52
2021/08/15 00:42:25;;;;;;;38.10;8.63;;;;;;;27.72;43.37;98683.38;5030411;28;20030;-52
2021/08/15 00:44:51;;;;;;;35.90;8.65;;;;;;;28.22;42.84;98683.78;5031751;28;20026;-52
2021/08/15 00:47:17;;;;;;;26.40;6.50;;;;;;;28.68;41.63;98692.38;5031880;28;20052;-52
2021/08/15 00:49:42;;;;;;;37.88;7.15;;;;;;;28.89;41.17;98687.09;5031560;28;20484;-52
2021/08/15 00:52:11;;;;;;;33.50;7.63;;;;;;;28.82;40.25;98686.81;5030316;28;20021;-52
2021/08/15 00:54:37;;;;;;;36.38;6.53;;;;;;;28.32;41.25;98695.41;5031894;28;20376;-52
2021/08/15 00:57:05;;;;;;;29.75;6.70;;;;;;;27.67;42.11;98687.81;5031449;28;20113;-52
2021/08/15 00:59:30;;;;;;;27.13;7.13;;;;;;;27.24;42.71;98691.13;5031585;28;20021;-52
2021/08/15 01:01:57;;;;;;;29.35;7.53;;;;;;;26.88;44.21;98683.97;5031502;28;20402;-52
2021/08/15 01:04:24;;;;;;;32.40;7.75;;;;;;;26.83;45.13;98676.00;5031564;28;20021;-53
2021/08/15 01:06:51;;;;;;;32.22;6.53;;;;;;;27.01;44.01;98665.34;5031492;28;20398;-52
2021/08/15 01:09:17;;;;;;;31.85;6.22;;;;;;;26.82;44.59;98666.38;5031426;28;20026;-52
2021/08/15 01:11:45;;;;;;;28.73;7.20;;;;;;;26.62;44.86;98661.47;5033118;28;20117;-52
2021/08/15 01:14:11;;;;;;;24.98;6.68;;;;;;;26.41;45.59;98655.75;5035412;28;20029;-52
2021/08/15 01:16:42;;;;;;;32.38;6.53;;;;;;;25.96;46.87;98667.25;5035555;28;20410;-52
2021/08/15 01:19:09;;;;;;;32.20;8.10;;;;;;;25.65;47.45;98665.16;5035292;28;20017;-52
2021/08/15 01:21:36;;;;;;;25.40;6.07;;;;;;;25.58;47.49;98654.03;5050478;28;20049;-52
2021/08/15 01:24:04;;;;;;;28.13;7.50;;;;;;;25.56;47.88;98639.31;5050273;28;20052;-52
2021/08/15 01:26:30;;;;;;;34.97;8.05;;;;;;;25.88;47.47;98641.06;5035120;28;20326;-52
2021/08/15 01:28:56;;;;;;;28.20;5.78;;;;;;;26.01;46.69;98648.31;5035274;28;20044;-52
2021/08/15 01:31:23;;;;;;;34.65;8.88;;;;;;;25.86;46.43;98640.56;5035017;28;20013;-52
2021/08/15 01:33:50;;;;;;;35.40;7.05;;;;;;;25.90;45.92;98633.50;5050319;28;20040;-52
2021/08/15 01:36:18;;;;;;;28.65;7.80;;;;;;;25.91;45.81;98627.03;5034972;28;20029;-52
2021/08/15 01:38:46;;;;;;;33.45;7.07;;;;;;;25.92;45.60;98631.31;5035034;28;20427;-52
2021/08/15 01:41:12;;;;;;;31.33;6.07;;;;;;;25.98;45.27;98630.09;5034925;28;20018;-52
2021/08/15 01:43:55;;;;;;;32.70;7.80;;;;;;;26.12;44.78;98627.38;5034861;28;20034;-52
2021/08/15 01:46:23;;;;;;;37.10;7.45;;;;;;;26.46;44.41;98632.22;5034754;28;20131;-52
2021/08/15 01:48:49;;;;;;;34.05;6.40;;;;;;;26.94;43.47;98628.06;5034900;28;20395;-52
2021/08/15 01:51:16;;;;;;;35.05;6.70;;;;;;;27.32;43.01;98645.69;5049931;28;20025;-52
2021/08/15 01:53:42;;;;;;;32.17;6.40;;;;;;;27.40;43.11;98644.91;5034960;28;20386;-52
2021/08/15 01:56:08;;;;;;;27.33;7.80;;;;;;;27.68;42.39;98642.75;5034614;28;20017;-53
2021/08/15 01:58:34;;;;;;;27.63;7.68;;;;;;;28.12;41.27;98640.16;5034841;28;20052;-52
2021/08/15 02:01:00;;;;;;;33.92;6.68;;;;;;;28.41;40.49;98643.00;5034524;28;20028;-52
2021/08/15 02:03:26;;;;;;;35.47;6.57;;;;;;;28.43;39.98;98643.47;5033201;28;20061;-52
2021/08/15 02:05:51;;;;;;;23.45;6.82;;;;;;;28.58;39.27;98641.41;5033149;28;20057;-52
2021/08/15 02:08:17;;;;;;;26.73;7.10;;;;;;;28.77;39.30;98647.22;5034347;28;20399;-52
2021/08/15 02:10:44;;;;;;;31.42;6.47;;;;;;;29.20;38.25;98643.63;5034611;28;20029;-52
2021/08/15 02:13:09;;;;;;;29.33;7.20;;;;;;;29.35;38.50;98638.78;5034552;28;20116;-52
2021/08/15 02:15:35;;;;;;;29.38;6.22;;;;;;;29.61;37.94;98642.13;5034530;28;20093;-52
2021/08/15 02:18:01;;;;;;;29.50;7.32;;;;;;;29.86;37.07;98636.91;5034237;28;20120;-52
2021/08/15 02:20:32;;;;;;;30.50;6.70;;;;;;;29.65;36.34;98640.34;5034196;28;20368;-52
2021/08/15 02:22:58;;;;;;;42.17;7.35;;;;;;;28.98;37.54;98639.22;5032948;28;20128;-52
2021/08/15 02:25:26;;;;;;;32.38;6.85;;;;;;;28.70;38.37;98641.53;5049488;28;20030;-52
2021/08/15 02:27:52;;;;;;;35.03;6.68;;;;;;;28.62;38.11;98637.75;5034034;28;20112;-52
2021/08/15 02:30:24;;;;;;;33.05;6.47;;;;;;;28.47;38.07;98644.41;5032728;28;20018;-52
2021/08/15 02:32:50;;;;;;;29.08;5.78;;;;;;;28.22;38.20;98637.13;5049269;28;20030;-53
2021/08/15 02:35:16;;;;;;;27.23;6.53;;;;;;;28.23;38.28;98641.41;5033883;28;20026;-52
2021/08/15 02:37:45;;;;;;;35.15;6.53;;;;;;;28.09;37.86;98634.28;5033898;28;20594;-52
2021/08/15 02:40:13;;;;;;;30.73;5.95;;;;;;;27.88;38.52;98628.69;5033829;28;20100;-52
2021/08/15 02:42:42;;;;;;;30.25;6.03;;;;;;;27.92;38.73;98623.47;5034006;28;20029;-52
2021/08/15 02:45:10;;;;;;;31.73;7.57;;;;;;;27.95;38.04;98627.44;5033597;28;20022;-52
2021/08/15 02:47:36;;;;;;;37.65;6.93;;;;;;;27.82;38.01;98624.53;5032365;28;20044;-52
2021/08/15 02:50:03;;;;;;;30.25;7.18;;;;;;;27.68;38.64;98608.50;5033859;28;20034;-52
2021/08/15 02:52:29;;;;;;;23.98;6.70;;;;;;;27.77;38.92;98607.72;5033604;28;20025;-52
2021/08/15 02:54:54;;;;;;;32.67;8.05;;;;;;;28.06;38.09;98607.91;5033757;28;20440;-51
2021/08/15 02:57:20;;;;;;;31.60;6.53;;;;;;;27.94;37.72;98599.66;5048791;28;20083;-52
2021/08/15 02:59:46;;;;;;;33.35;6.72;;;;;;;27.87;38.35;98583.19;5033448;28;20377;-52
2021/08/15 03:02:15;;;;;;;31.52;6.97;;;;;;;27.88;38.10;98590.94;5032018;28;20061;-52
2021/08/15 03:04:42;;;;;;;29.42;7.28;;;;;;;27.81;38.40;98581.69;5048939;28;20052;-52
2021/08/15 03:07:09;;;;;;;42.70;6.30;;;;;;;27.90;37.76;98582.53;5033182;28;20045;-52
2021/08/15 03:09:35;;;;;;;29.88;7.28;;;;;;;27.80;38.06;98583.59;5031907;28;20091;-52
2021/08/15 03:12:01;;;;;;;28.35;6.13;;;;;;;27.61;37.97;98581.22;5033100;28;20025;-52
2021/08/15 03:14:26;;;;;;;28.65;5.68;;;;;;;27.52;38.49;98574.22;5031838;28;20079;-52
2021/08/15 03:16:52;;;;;;;31.23;7.15;;;;;;;27.66;39.14;98572.97;5033115;28;20109;-52
2021/08/15 03:19:18;;;;;;;31.42;6.95;;;;;;;28.13;38.25;98563.47;5033056;28;20438;-52
2021/08/15 03:21:44;;;;;;;35.05;7.93;;;;;;;28.71;37.71;98564.78;5031731;28;20526;-52
2021/08/15 03:24:11;;;;;;;37.38;8.68;;;;;;;29.22;36.93;98563.00;5032805;28;20419;-52
2021/08/15 03:26:38;;;;;;;31.92;6.20;;;;;;;29.38;35.86;98562.41;5048191;28;20083;-52
2021/08/15 03:29:03;;;;;;;31.02;8.55;;;;;;;29.23;35.97;98561.09;5033027;28;20037;-52
2021/08/15 03:31:32;;;;;;;39.60;7.05;;;;;;;29.03;36.00;98570.69;5032875;28;20391;-52
2021/08/15 03:33:58;;;;;;;26.90;6.95;;;;;;;28.89;36.04;98576.31;5032628;28;20068;-52
2021/08/15 03:36:24;;;;;;;27.27;6.22;;;;;;;28.71;37.71;98582.91;5032761;28;20053;-52
2021/08/15 03:38:50;;;;;;;29.40;6.07;;;;;;;28.65;37.85;98568.78;5032701;28;20080;-52
2021/08/15 03:41:15;;;;;;;29.23;6.70;;;;;;;28.51;38.85;98571.69;5032653;28;20026;-52
2021/08/15 03:43:41;;;;;;;41.97;7.55;;;;;;;28.31;39.56;98575.81;5032649;28;20029;-52
2021/08/15 03:46:06;;;;;;;24.40;6.75;;;;;;;28.10;41.12;98570.31;5047821;28;20060;-52
2021/08/15 03:48:32;;;;;;;27.63;5.88;;;;;;;27.90;42.75;98571.75;5047793;28;20033;-52
2021/08/15 03:50:58;;;;;;;38.53;8.13;;;;;;;28.08;41.68;98567.91;5032664;28;20017;-52
2021/08/15 03:53:24;;;;;;;26.83;7.15;;;;;;;28.51;42.85;98579.78;5032554;28;20439;-52
2021/08/15 03:55:49;;;;;;;31.10;6.88;;;;;;;28.81;42.03;98567.13;5031013;28;20507;-52
2021/08/15 03:58:15;;;;;;;30.20;6.55;;;;;;;28.62;42.91;98569.44;5032362;28;20112;-52
2021/08/15 04:00:41;;;;;;;26.10;6.10;;;;;;;28.38;43.54;98573.44;5047574;28;20105;-51
2021/08/15 04:03:08;;;;;;;32.28;7.05;;;;;;;28.19;44.65;98570.28;5032285;28;20037;-52
2021/08/15 04:05:34;;;;;;;28.98;6.40;;;;;;;27.81;45.57;98568.22;5032192;28;20059;-52
2021/08/15 04:08:00;;;;;;;22.83;6.13;;;;;;;27.34;46.03;98563.41;5032103;28;20040;-52
2021/08/15 04:10:25;;;;;;;32.05;6.82;;;;;;;27.04;47.05;98568.53;5032221;28;20021;-52
2021/08/15 04:12:51;;;;;;;30.05;7.50;;;;;;;26.98;47.35;98566.28;5047416;28;20028;-52
2021/08/15 04:15:19;;;;;;;22.88;6.28;;;;;;;27.11;48.13;98573.47;5032038;28;20124;-52
2021/08/15 04:17:45;;;;;;;29.92;7.38;;;;;;;27.21;48.36;98567.78;5032000;28;20021;-52
2021/08/15 04:20:11;;;;;;;22.92;6.68;;;;;;;27.15;49.36;98563.66;5047293;28;20036;-52
2021/08/15 04:22:37;;;;;;;20.15;5.32;;;;;;;27.33;49.77;98574.53;5031675;28;20025;-53
2021/08/15 04:25:03;;;;;;;28.88;7.72;;;;;;;27.22;50.34;98571.28;5031785;28;20090;-52
2021/08/15 04:27:29;;;;;;;19.75;8.15;;;;;;;27.03;50.42;98571.56;5030644;28;20122;-52
2021/08/15 04:29:54;;;;;;;19.80;6.78;;;;;;;26.71;51.36;98576.16;5031782;28;20021;-52
2021/08/15 04:32:23;;;;;;;19.63;7.25;;;;;;;26.47;52.92;98576.50;5031923;28;20029;-52
2021/08/15 04:34:49;;;;;;;16.25;6.28;;;;;;;26.29;53.02;98576.38;5031823;28;20572;-52
2021/08/15 04:37:17;;;;;;;23.00;7.95;;;;;;;26.11;53.55;98580.03;5031826;28;20022;-52
2021/08/15 04:39:44;;;;;;;44.83;11.82;;;;;;;26.11;53.59;98580.84;5031883;28;20029;-52
2021/08/15 04:42:11;;;;;;;33.40;10.27;;;;;;;26.01;53.91;98586.44;5031668;28;20040;-52
2021/08/15 04:44:39;;;;;;;25.90;7.22;;;;;;;26.00;54.21;98587.56;5031796;28;20037;-52
2021/08/15 04:47:05;;;;;;;27.42;7.90;;;;;;;25.86;54.13;98594.84;5035379;28;20029;-52
2021/08/15 04:49:31;;;;;;;20.88;8.20;;;;;;;25.78;54.55;98588.31;5038258;28;20025;-52
2021/08/15 04:51:57;;;;;;;24.17;6.78;;;;;;;25.85;54.20;98593.25;5053574;28;20061;-52
2021/08/15 04:54:28;;;;;;;22.65;7.25;;;;;;;25.82;54.26;98589.28;5038273;28;20103;-52
2021/08/15 04:56:58;;;;;;;25.05;7.70;;;;;;;25.75;54.69;98590.78;5038260;28;20029;-52
2021/08/15 04:59:25;;;;;;;20.77;6.88;;;;;;;25.87;54.65;98601.81;5038262;28;20120;-52
2021/08/15 05:01:51;;;;;;;28.83;6.72;;;;;;;26.09;53.69;98590.31;5038383;28;20025;-53
2021/08/15 05:04:17;;;;;;;40.70;10.40;;;;;;;26.34;54.84;98593.50;5038174;28;20048;-52
2021/08/15 05:06:43;;;;;;;20.52;6.03;;;;;;;26.55;53.11;98583.81;5053492;28;20029;-52
2021/08/15 05:09:09;;;;;;;28.45;8.35;;;;;;;26.40;53.51;98595.78;5038003;28;20372;-53
2021/08/15 05:11:34;;;;;;;27.25;5.78;;;;;;;26.37;52.95;98603.66;5038084;28;20029;-52
2021/08/15 05:14:00;;;;;;;29.08;7.05;;;;;;;26.72;52.80;98593.09;5053431;28;20399;-52
2021/08/15 05:16:26;;;;;;;22.90;6.88;;;;;;;26.78;51.88;98595.34;5020276;28;20040;-52
2021/08/15 05:18:52;;;;;;;42.65;23.77;;;;;;;26.74;51.71;98596.28;5053412;28;20027;-52
2021/08/15 05:21:17;;;;;;;121.53;84.57;;;;;;;26.76;52.38;98584.09;5038206;28;20025;-52
2021/08/15 05:23:43;;;;;;;30.73;11.13;;;;;;;27.16;51.19;98589.47;5037774;28;20061;-52
2021/08/15 05:26:09;;;;;;;525.75;447.13;;;;;;;27.39;50.63;98594.84;5036618;28;20029;-52
2021/08/15 05:28:35;;;;;;;102.18;64.75;;;;;;;27.74;48.72;98594.88;5037909;28;20480;-51
2021/08/15 05:31:01;;;;;;;35.00;12.00;;;;;;;27.86;49.12;98600.44;5036591;28;20109;-52
2021/08/15 05:33:27;;;;;;;34.97;9.93;;;;;;;28.18;48.59;98604.59;5037907;28;20087;-52
2021/08/15 05:35:52;;;;;;;92.60;76.45;;;;;;;28.46;48.09;98602.31;5037788;28;20018;-52
2021/08/15 05:38:18;;;;;;;22.70;10.20;;;;;;;28.71;47.20;98609.91;5053224;28;20034;-52
2021/08/15 05:40:44;;;;;;;25.38;6.68;;;;;;;28.98;46.33;98614.91;5037846;28;20704;-52
2021/08/15 05:43:10;;;;;;;26.55;6.72;;;;;;;29.07;44.95;98618.34;5036606;28;20028;-52
2021/08/15 05:45:37;;;;;;;33.33;7.90;;;;;;;29.07;45.16;98617.56;5037831;28;20031;-52
2021/08/15 05:48:06;;;;;;;25.55;6.88;;;;;;;29.09;45.36;98610.72;5037946;28;20025;-52
2021/08/15 05:50:32;;;;;;;26.88;6.63;;;;;;;29.63;44.20;98609.34;5037702;28;20030;-51
2021/08/15 05:52:58;;;;;;;26.02;6.97;;;;;;;29.69;44.19;98610.75;5036414;28;20033;-52
2021/08/15 05:55:24;;;;;;;141.02;63.58;;;;;;;29.61;44.91;98612.38;5037689;28;20018;-52
2021/08/15 05:57:49;;;;;;;89.18;43.00;;;;;;;29.84;44.61;98622.91;5034908;28;20042;-52
2021/08/15 06:00:15;;;;;;;83.40;57.38;;;;;;;30.21;43.61;98623.88;5049876;28;20068;-53
2021/08/15 06:02:42;;;;;;;69.43;24.10;;;;;;;31.24;41.50;98615.00;5034521;28;20036;-52
2021/08/15 06:05:10;;;;;;;31.23;9.50;;;;;;;31.58;40.69;98615.66;5034690;28;20398;-52
2021/08/15 06:07:36;;;;;;;28.98;7.35;;;;;;;31.27;41.43;98621.69;5034429;28;20037;-52
2021/08/15 06:10:02;;;;;;;30.88;7.78;;;;;;;31.06;41.61;98624.47;5034289;28;20018;-52
2021/08/15 06:12:27;;;;;;;41.13;9.38;;;;;;;31.09;41.74;98621.13;5034409;28;20083;-51
2021/08/15 06:14:53;;;;;;;28.88;8.35;;;;;;;31.24;41.30;98617.69;5034312;28;20025;-52
2021/08/15 06:17:19;;;;;;;25.65;6.72;;;;;;;31.20;41.12;98618.72;5032909;28;20037;-53
2021/08/15 06:19:45;;;;;;;20.98;6.22;;;;;;;31.09;41.58;98625.72;5034263;28;20029;-52
2021/08/15 06:22:10;;;;;;;27.10;7.22;;;;;;;31.25;41.55;98622.00;5034089;28;20030;-52
2021/08/15 06:24:37;;;;;;;25.95;9.10;;;;;;;31.82;40.68;98627.63;5033898;28;20176;-52
2021/08/15 06:27:03;;;;;;;30.33;7.40;;;;;;;31.88;40.10;98626.25;5034038;28;20021;-52
2021/08/15 06:29:29;;;;;;;26.95;7.15;;;;;;;31.62;40.64;98630.13;5034223;28;20099;-52
2021/08/15 06:31:56;;;;;;;29.85;6.97;;;;;;;31.32;41.06;98631.50;5034230;28;20032;-52
2021/08/15 06:34:21;;;;;;;20.15;5.80;;;;;;;31.30;41.01;98631.03;5032687;28;20025;-51
2021/08/15 06:36:47;;;;;;;25.77;6.85;;;;;;;31.38;40.94;98630.91;5033813;28;20480;-52
2021/08/15 06:39:13;;;;;;;28.85;7.30;;;;;;;31.56;41.01;98630.72;5033864;28;20033;-52
2021/08/15 06:41:40;;;;;;;26.75;7.30;;;;;;;31.76;40.33;98627.06;5033807;28;20060;-52
2021/08/15 06:44:07;;;;;;;25.80;6.40;;;;;;;31.94;40.54;98630.28;5033700;28;20037;-52
2021/08/15 06:46:33;;;;;;;25.38;6.88;;;;;;;32.15;39.94;98632.84;5033732;28;20028;-53
2021/08/15 06:48:59;;;;;;;20.55;6.15;;;;;;;32.14;39.65;98630.50;5033616;28;20030;-53
2021/08/15 06:51:25;;;;;;;24.73;6.47;;;;;;;32.07;40.15;98635.72;5032340;28;20408;-52
2021/08/15 06:53:51;;;;;;;22.35;6.13;;;;;;;31.95;40.76;98640.00;5033569;28;20037;-52
2021/08/15 06:56:17;;;;;;;25.00;6.35;;;;;;;32.67;39.38;98642.03;5032186;28;20028;-51
2021/08/15 06:58:43;;;;;;;22.02;6.28;;;;;;;33.57;37.49;98645.00;5048849;28;20450;-52
2021/08/15 07:01:08;;;;;;;24.10;6.80;;;;;;;33.43;37.56;98644.69;5032149;28;20029;-52
2021/08/15 07:03:34;;;;;;;29.77;6.40;;;;;;;33.15;37.53;98645.59;5033428;28;20029;-52
2021/08/15 07:06:00;;;;;;;24.00;6.35;;;;;;;32.96;38.29;98648.19;5033380;28;20036;-52
2021/08/15 07:08:25;;;;;;;29.58;6.88;;;;;;;33.28;37.50;98646.25;5032995;28;20038;-52
2021/08/15 07:10:51;;;;;;;25.30;6.90;;;;;;;34.69;35.64;98642.66;5033015;28;20033;-52
2021/08/15 07:13:22;;;;;;;31.98;6.68;;;;;;;35.36;34.37;98638.69;5015452;28;20514;-49
2021/08/15 07:15:49;;;;;;;23.77;7.47;;;;;;;35.94;33.82;98645.72;5033499;28;20037;-49
2021/08/15 07:18:15;;;;;;;32.47;7.57;;;;;;;36.35;33.25;98645.84;5048515;28;20029;-50
2021/08/15 07:20:41;;;;;;;31.20;6.38;;;;;;;37.20;32.01;98642.38;5033132;28;20032;-52
2021/08/15 07:23:08;;;;;;;25.13;5.93;;;;;;;38.41;30.43;98649.63;5032807;28;20041;-52
2021/08/15 07:25:34;;;;;;;27.95;6.90;;;;;;;40.05;27.67;98649.97;5033007;28;20455;-52
2021/08/15 07:28:01;;;;;;;23.55;6.75;;;;;;;41.25;25.78;98654.31;5032812;28;20029;-53
2021/08/15 07:30:28;;;;;;;24.42;6.35;;;;;;;42.06;24.70;98648.34;5048207;28;20116;-52
2021/08/15 07:33:03;;;;;;;23.00;6.75;;;;;;;42.28;24.21;98651.56;5031575;28;20032;-53
2021/08/15 07:35:31;;;;;;;27.90;8.20;;;;;;;43.14;23.58;98643.97;5032840;28;20026;-52
2021/08/15 07:37:57;;;;;;;25.70;6.32;;;;;;;43.37;22.84;98657.78;5032898;28;20104;-52
2021/08/15 07:40:24;;;;;;;30.55;6.78;;;;;;;42.06;24.61;98656.63;5032977;28;20029;-52
2021/08/15 07:42:51;;;;;;;21.50;7.13;;;;;;;40.81;26.37;98658.59;5032714;28;20029;-51
2021/08/15 07:45:18;;;;;;;23.77;6.88;;;;;;;40.70;26.73;98644.88;5031333;28;20056;-52
2021/08/15 07:47:44;;;;;;;27.55;6.90;;;;;;;42.05;25.13;98663.31;5032572;28;20029;-52
2021/08/15 07:50:10;;;;;;;26.42;7.18;;;;;;;42.74;24.51;98661.16;5032448;28;20035;-53
2021/08/15 07:52:37;;;;;;;24.42;7.82;;;;;;;43.07;24.07;98659.47;5032464;28;20033;-52
2021/08/15 07:55:03;;;;;;;21.60;6.80;;;;;;;42.08;25.33;98657.75;5032644;28;20455;-52
2021/08/15 07:57:30;;;;;;;24.95;6.85;;;;;;;41.46;26.28;98661.59;5032332;28;20049;-53
2021/08/15 07:59:57;;;;;;;29.40;7.50;;;;;;;40.92;26.83;98659.28;5032584;28;20044;-53
2021/08/15 08:02:23;;;;;;;20.38;7.18;;;;;;;40.70;27.29;98666.91;5032285;28;20064;-52
2021/08/15 08:04:50;;;;;;;27.35;7.03;;;;;;;41.03;26.95;98660.00;5032242;28;20018;-53
2021/08/15 08:07:19;;;;;;;25.42;7.63;;;;;;;41.06;26.38;98661.16;5032160;28;20021;-53
2021/08/15 08:09:49;;;;;;;24.02;6.65;;;;;;;40.74;26.67;98662.19;5032275;28;20526;-52
2021/08/15 08:12:16;;;;;;;23.42;6.57;;;;;;;40.31;27.41;98654.97;5032140;28;20108;-53
2021/08/15 08:14:43;;;;;;;24.13;6.78;;;;;;;40.33;27.29;98658.09;5032308;28;20022;-53
2021/08/15 08:17:09;;;;;;;31.80;7.32;;;;;;;40.46;27.21;98657.63;5047350;28;20034;-53
2021/08/15 08:19:35;;;;;;;30.25;8.65;;;;;;;41.02;26.44;98650.16;5032249;28;20029;-54
2021/08/15 08:22:02;;;;;;;29.50;7.18;;;;;;;41.89;25.76;98641.81;5031157;28;20037;-55
2021/08/15 08:24:28;;;;;;;28.17;6.90;;;;;;;42.50;24.94;98646.56;5047072;28;20076;-55
2021/08/15 08:26:53;;;;;;;33.75;8.82;;;;;;;42.62;25.54;98646.00;5031880;28;20022;-53
2021/08/15 08:29:19;;;;;;;26.75;6.75;;;;;;;42.93;24.78;98643.16;5031910;28;20160;-53
2021/08/15 08:31:45;;;;;;;22.67;6.60;;;;;;;43.17;24.40;98638.41;5030536;28;20067;-55
2021/08/15 08:34:12;;;;;;;28.63;7.60;;;;;;;43.66;23.66;98635.13;5031803;28;20442;-55
2021/08/15 08:36:37;;;;;;;25.63;7.13;;;;;;;44.32;22.63;98636.13;5031820;28;20479;-54
2021/08/15 08:39:04;;;;;;;32.40;7.30;;;;;;;44.59;22.37;98630.38;5031806;28;20037;-54
2021/08/15 08:41:31;;;;;;;29.58;7.35;;;;;;;44.40;22.28;98643.06;5031749;28;20022;-55
2021/08/15 08:43:57;;;;;;;26.88;7.20;;;;;;;44.70;21.99;98635.69;5031806;28;20076;-54
2021/08/15 08:46:25;;;;;;;24.23;7.22;;;;;;;45.63;20.54;98632.47;5031792;28;20045;-54
2021/08/15 08:48:51;;;;;;;29.30;7.55;;;;;;;46.22;19.99;98628.41;5031650;28;20083;-54
2021/08/15 08:51:21;;;;;;;27.00;8.43;;;;;;;46.43;19.87;98631.75;5031632;28;20022;-54
2021/08/15 08:53:51;;;;;;;31.10;8.20;;;;;;;46.94;19.31;98634.44;5031633;28;20025;-55
2021/08/15 08:56:17;;;;;;;25.83;8.45;;;;;;;47.61;19.23;98632.53;5030289;28;20495;-54
2021/08/15 08:58:44;;;;;;;31.35;7.10;;;;;;;48.03;18.56;98621.03;5031520;28;20109;-54
2021/08/15 09:01:13;;;;;;;34.72;7.78;;;;;;;48.12;18.42;98626.66;5031615;28;20182;-54
2021/08/15 09:03:44;;;;;;;29.48;8.35;;;;;;;48.08;18.70;98628.81;5013834;28;20030;-54
2021/08/15 09:06:24;;;;;;;30.95;7.68;;;;;;;48.03;18.48;98621.03;5046769;28;20022;-54
2021/08/15 09:08:51;;;;;;;31.65;7.25;;;;;;;47.32;19.20;98624.44;5031468;28;20052;-55
2021/08/15 09:11:19;;;;;;;26.95;6.47;;;;;;;47.10;19.35;98627.94;5031490;28;20034;-55
2021/08/15 09:14:12;;;;;;;21.75;6.88;;;;;;;47.68;19.11;98620.38;5031500;28;20037;-55
2021/08/15 09:16:57;;;;;;;26.50;7.57;;;;;;;47.89;19.22;98608.41;5031753;28;20026;-54
2021/08/15 09:19:36;;;;;;;27.83;6.72;;;;;;;48.05;18.89;98604.66;5031459;28;20037;-55
2021/08/15 09:22:22;;;;;;;31.98;7.03;;;;;;;48.30;18.40;98605.69;5031370;28;20025;-54
2021/08/15 09:24:51;;;;;;;26.73;6.60;;;;;;;48.09;18.59;98610.09;5031184;28;20053;-54
2021/08/15 09:27:19;;;;;;;30.05;8.13;;;;;;;48.45;18.46;98609.44;5031591;28;20082;-54
2021/08/15 09:30:06;;;;;;;25.13;7.25;;;;;;;48.29;18.15;98604.91;5031515;28;20391;-55
2021/08/15 09:32:32;;;;;;;19.10;7.38;;;;;;;48.36;18.28;98609.44;5032727;28;20057;-54
2021/08/15 09:34:59;;;;;;;19.55;6.57;;;;;;;48.42;17.99;98602.03;5033833;28;20025;-55
2021/08/15 09:37:32;;;;;;;18.27;6.85;;;;;;;48.34;17.95;98609.13;5050409;28;20057;-55
2021/08/15 09:39:58;;;;;;;29.10;7.13;;;;;;;48.32;18.19;98609.59;5035067;28;20032;-54
2021/08/15 09:42:44;;;;;;;17.15;7.32;;;;;;;48.08;18.31;98600.97;5050266;28;20021;-55
2021/08/15 09:45:16;;;;;;;24.98;6.55;;;;;;;47.81;19.18;98599.59;5034960;28;20088;-54
2021/08/15 09:47:43;;;;;;;20.13;6.87;;;;;;;47.94;18.63;98607.88;5050182;28;20491;-54
2021/08/15 09:50:21;;;;;;;21.98;7.25;;;;;;;48.32;18.52;98600.44;5033392;28;20487;-54
2021/08/15 09:52:47;;;;;;;22.23;6.13;;;;;;;48.16;18.30;98607.81;5034734;28;20037;-55
2021/08/15 09:55:13;;;;;;;20.98;6.38;;;;;;;48.37;18.83;98599.84;5033400;28;20021;-55
2021/08/15 09:57:39;;;;;;;21.08;6.63;;;;;;;48.40;18.71;98596.16;5034651;28;20487;-54
2021/08/15 10:00:27;;;;;;;14.85;6.25;;;;;;;48.35;18.27;98599.53;5034786;28;20030;-54
2021/08/15 10:02:53;;;;;;;23.92;7.60;;;;;;;48.43;18.29;98600.78;5034500;28;20061;-54
2021/08/15 10:05:20;;;;;;;18.73;6.88;;;;;;;48.45;18.11;98603.88;5034521;28;20100;-54
2021/08/15 10:07:46;;;;;;;19.05;6.25;;;;;;;48.63;18.00;98596.81;5049752;28;20079;-55
2021/08/15 10:10:15;;;;;;;19.23;5.68;;;;;;;48.81;18.43;98596.84;5034236;28;20030;-56
2021/08/15 10:12:41;;;;;;;20.33;6.28;;;;;;;49.07;17.98;98591.00;5034633;28;20052;-55
2021/08/15 10:15:11;;;;;;;16.58;5.60;;;;;;;49.03;17.40;98588.34;5034373;28;20526;-55
2021/08/15 10:17:38;;;;;;;14.93;6.03;;;;;;;48.73;17.86;98590.03;5034236;28;20040;-54
2021/08/15 10:20:11;;;;;;;11.95;5.00;;;;;;;48.60;18.10;98592.94;5034250;28;20083;-54
2021/08/15 10:22:37;;;;;;;17.05;6.07;;;;;;;48.34;18.27;98584.06;5049516;28;20126;-54
2021/08/15 10:25:07;;;;;;;16.20;5.97;;;;;;;48.09;18.47;98588.59;5033949;28;20050;-54
2021/08/15 10:27:39;;;;;;;17.92;6.60;;;;;;;48.12;18.44;98584.13;5034061;28;20064;-54
2021/08/15 10:30:17;;;;;;;22.98;6.22;;;;;;;48.02;18.56;98580.53;5049361;28;20470;-55
2021/08/15 10:32:55;;;;;;;17.60;6.10;;;;;;;47.88;18.10;98581.84;5049354;28;20033;-54
2021/08/15 10:35:33;;;;;;;17.25;6.57;;;;;;;47.28;18.52;98580.09;5034004;28;20108;-54
2021/08/15 10:38:05;;;;;;;18.75;5.90;;;;;;;47.35;18.82;98574.28;5034228;28;20065;-55
2021/08/15 10:40:40;;;;;;;13.48;5.25;;;;;;;47.61;18.69;98574.13;5049155;28;20450;-54
2021/08/15 10:43:21;;;;;;;20.95;5.53;;;;;;;47.90;18.70;98573.03;5033674;28;20518;-54
2021/08/15 10:46:09;;;;;;;15.32;5.55;;;;;;;48.15;18.03;98575.63;5047354;28;20056;-54
2021/08/15 10:48:53;;;;;;;19.92;6.40;;;;;;;48.03;18.32;98575.75;5033608;28;20108;-55
2021/08/15 10:51:42;;;;;;;16.60;5.85;;;;;;;47.85;18.68;98577.19;5033618;28;20033;-54
2021/08/15 10:54:28;;;;;;;18.73;5.95;;;;;;;47.97;18.52;98570.00;5033606;28;20117;-55
2021/08/15 10:56:59;;;;;;;17.58;6.25;;;;;;;48.03;18.78;98582.06;5033363;28;20033;-54
2021/08/15 10:59:32;;;;;;;14.13;5.32;;;;;;;47.95;18.47;98572.47;5033761;28;20080;-54
2021/08/15 11:02:16;;;;;;;16.05;6.05;;;;;;;47.73;18.06;98580.84;5033360;28;20030;-55
2021/08/15 11:04:57;;;;;;;11.77;6.10;;;;;;;47.87;18.20;98573.94;5048815;28;20496;-55
2021/08/15 11:07:40;;;;;;;10.88;5.03;;;;;;;48.11;17.69;98571.44;5033313;28;20025;-54
2021/08/15 11:10:08;;;;;;;14.70;5.85;;;;;;;48.00;18.27;98572.66;5048567;28;20112;-54
2021/08/15 11:12:34;;;;;;;17.02;6.38;;;;;;;47.80;18.33;98570.22;5033266;28;20028;-54
2021/08/15 11:15:06;;;;;;;20.67;5.93;;;;;;;47.52;18.39;98565.72;5033261;28;20034;-55
2021/08/15 11:17:33;;;;;;;14.83;6.23;;;;;;;47.49;18.26;98577.75;5033150;28;20037;-55
2021/08/15 11:20:32;;;;;;;14.38;5.55;;;;;;;47.36;18.66;98567.47;5033073;28;20063;-54
2021/08/15 11:23:15;;;;;;;13.02;5.30;;;;;;;47.31;18.53;98572.84;5031456;28;20068;-55
2021/08/15 11:25:41;;;;;;;16.48;5.72;;;;;;;47.17;18.56;98568.56;5048305;28;20037;-55
2021/08/15 11:28:09;;;;;;;14.27;5.00;;;;;;;47.44;18.55;98567.22;5048428;28;20045;-55